sensor_id;sensor_type;location;lat;lon;timestamp;temperature;humidity
21502;DHT22;27639;48.674;9.242;2023-04-01T00:02:01;11.60;61.40
21502;DHT22;27639;48.674;9.242;2023-04-01T00:04:26;11.70;61.50
21502;DHT22;27639;48.674;9.242;2023-04-01T00:06:52;11.70;61.80
21502;DHT22;27639;48.674;9.242;2023-04-01T00:09:18;11.70;61.50
21502;DHT22;27639;48.674;9.242;2023-04-01T00:11:44;11.70;61.50
21502;DHT22;27639;48.674;9.242;2023-04-01T00:14:11;11.70;61.50
21502;DHT22;27639;48.674;9.242;2023-04-01T00:16:37;11.70;61.50
21502;DHT22;27639;48.674;9.242;2023-04-01T00:19:03;11.80;61.60
21502;DHT22;27639;48.674;9.242;2023-04-01T00:21:28;11.70;61.60
21502;DHT22;27639;48.674;9.242;2023-04-01T00:23:54;11.70;62.00
21502;DHT22;27639;48.674;9.242;2023-04-01T00:26:20;11.70;61.80
21502;DHT22;27639;48.674;9.242;2023-04-01T00:28:47;11.70;61.80
21502;DHT22;27639;48.674;9.242;2023-04-01T00:31:13;11.70;61.80
21502;DHT22;27639;48.674;9.242;2023-04-01T00:33:40;11.70;61.50
21502;DHT22;27639;48.674;9.242;2023-04-01T00:36:08;11.70;61.70
21502;DHT22;27639;48.674;9.242;2023-04-01T00:38:35;11.60;61.80
21502;DHT22;27639;48.674;9.242;2023-04-01T00:41:01;11.60;61.90
21502;DHT22;27639;48.674;9.242;2023-04-01T00:43:27;11.70;62.00
21502;DHT22;27639;48.674;9.242;2023-04-01T00:45:52;11.60;61.90
21502;DHT22;27639;48.674;9.242;2023-04-01T00:48:22;11.60;62.20
21502;DHT22;27639;48.674;9.242;2023-04-01T00:50:52;11.50;62.80
21502;DHT22;27639;48.674;9.242;2023-04-01T00:53:20;11.50;62.60
21502;DHT22;27639;48.674;9.242;2023-04-01T00:55:51;11.60;62.50
21502;DHT22;27639;48.674;9.242;2023-04-01T00:58:21;11.50;62.20
21502;DHT22;27639;48.674;9.242;2023-04-01T01:00:49;11.60;62.30
21502;DHT22;27639;48.674;9.242;2023-04-01T01:03:15;11.50;62.40
21502;DHT22;27639;48.674;9.242;2023-04-01T01:09:12;11.60;62.20
21502;DHT22;27639;48.674;9.242;2023-04-01T01:25:49;11.60;62.10
21502;DHT22;27639;48.674;9.242;2023-04-01T01:31:17;11.50;62.50
21502;DHT22;27639;48.674;9.242;2023-04-01T01:36:17;11.40;62.50
21502;DHT22;27639;48.674;9.242;2023-04-01T01:38:46;11.50;62.50
21502;DHT22;27639;48.674;9.242;2023-04-01T01:41:15;11.50;62.30
21502;DHT22;27639;48.674;9.242;2023-04-01T01:43:47;11.50;62.30
21502;DHT22;27639;48.674;9.242;2023-04-01T01:46:19;11.40;62.20
21502;DHT22;27639;48.674;9.242;2023-04-01T01:48:47;11.50;62.30
21502;DHT22;27639;48.674;9.242;2023-04-01T01:51:13;11.50;62.20
21502;DHT22;27639;48.674;9.242;2023-04-01T01:53:39;11.50;62.50
21502;DHT22;27639;48.674;9.242;2023-04-01T01:56:05;11.50;62.50
21502;DHT22;27639;48.674;9.242;2023-04-01T01:58:39;11.50;62.70
21502;DHT22;27639;48.674;9.242;2023-04-01T02:01:13;11.40;62.70
21502;DHT22;27639;48.674;9.242;2023-04-01T02:03:41;11.30;62.80
21502;DHT22;27639;48.674;9.242;2023-04-01T02:06:10;11.20;63.00
21502;DHT22;27639;48.674;9.242;2023-04-01T02:08:44;11.30;63.30
21502;DHT22;27639;48.674;9.242;2023-04-01T02:11:11;11.20;63.20
21502;DHT22;27639;48.674;9.242;2023-04-01T02:13:39;11.10;63.20
21502;DHT22;27639;48.674;9.242;2023-04-01T02:16:13;11.10;63.10
21502;DHT22;27639;48.674;9.242;2023-04-01T02:18:39;11.10;63.00
21502;DHT22;27639;48.674;9.242;2023-04-01T02:21:08;11.00;62.90
21502;DHT22;27639;48.674;9.242;2023-04-01T02:23:35;10.90;63.10
21502;DHT22;27639;48.674;9.242;2023-04-01T02:26:02;11.00;62.90
21502;DHT22;27639;48.674;9.242;2023-04-01T02:28:31;11.00;62.80
21502;DHT22;27639;48.674;9.242;2023-04-01T02:30:59;11.10;62.60
21502;DHT22;27639;48.674;9.242;2023-04-01T02:33:28;11.10;62.50
21502;DHT22;27639;48.674;9.242;2023-04-01T02:35:54;11.20;62.20
21502;DHT22;27639;48.674;9.242;2023-04-01T02:38:19;11.20;62.10
21502;DHT22;27639;48.674;9.242;2023-04-01T02:40:49;11.20;62.80
21502;DHT22;27639;48.674;9.242;2023-04-01T02:43:15;11.30;61.80
21502;DHT22;27639;48.674;9.242;2023-04-01T02:45:42;11.30;61.60
21502;DHT22;27639;48.674;9.242;2023-04-01T02:48:08;11.20;61.50
21502;DHT22;27639;48.674;9.242;2023-04-01T02:50:33;11.10;61.50
21502;DHT22;27639;48.674;9.242;2023-04-01T02:53:00;11.10;61.50
21502;DHT22;27639;48.674;9.242;2023-04-01T02:55:26;11.10;61.50
21502;DHT22;27639;48.674;9.242;2023-04-01T02:57:51;11.20;61.30
21502;DHT22;27639;48.674;9.242;2023-04-01T03:00:17;11.20;61.10
21502;DHT22;27639;48.674;9.242;2023-04-01T03:02:42;11.20;61.00
21502;DHT22;27639;48.674;9.242;2023-04-01T03:05:09;11.10;60.90
21502;DHT22;27639;48.674;9.242;2023-04-01T03:07:35;11.10;60.90
21502;DHT22;27639;48.674;9.242;2023-04-01T03:10:01;11.10;60.90
21502;DHT22;27639;48.674;9.242;2023-04-01T03:12:26;11.10;60.90
21502;DHT22;27639;48.674;9.242;2023-04-01T03:14:52;11.10;60.80
21502;DHT22;27639;48.674;9.242;2023-04-01T03:17:17;11.10;60.60
21502;DHT22;27639;48.674;9.242;2023-04-01T03:19:43;11.10;60.60
21502;DHT22;27639;48.674;9.242;2023-04-01T03:22:11;11.00;60.70
21502;DHT22;27639;48.674;9.242;2023-04-01T03:24:36;11.10;60.80
21502;DHT22;27639;48.674;9.242;2023-04-01T03:27:02;11.10;60.60
21502;DHT22;27639;48.674;9.242;2023-04-01T03:29:28;11.00;60.80
21502;DHT22;27639;48.674;9.242;2023-04-01T03:31:53;10.90;60.70
21502;DHT22;27639;48.674;9.242;2023-04-01T03:34:19;10.90;60.70
21502;DHT22;27639;48.674;9.242;2023-04-01T03:36:44;10.80;60.80
21502;DHT22;27639;48.674;9.242;2023-04-01T03:39:10;10.80;60.90
21502;DHT22;27639;48.674;9.242;2023-04-01T03:41:36;10.80;60.90
21502;DHT22;27639;48.674;9.242;2023-04-01T03:44:03;10.80;60.90
21502;DHT22;27639;48.674;9.242;2023-04-01T03:46:29;10.90;60.80
21502;DHT22;27639;48.674;9.242;2023-04-01T03:48:54;10.90;61.00
21502;DHT22;27639;48.674;9.242;2023-04-01T03:51:20;10.80;60.80
21502;DHT22;27639;48.674;9.242;2023-04-01T03:53:46;10.80;60.60
21502;DHT22;27639;48.674;9.242;2023-04-01T03:56:11;10.80;60.60
21502;DHT22;27639;48.674;9.242;2023-04-01T03:58:37;10.80;60.60
21502;DHT22;27639;48.674;9.242;2023-04-01T04:01:13;10.80;60.60
21502;DHT22;27639;48.674;9.242;2023-04-01T04:03:39;10.80;60.60
21502;DHT22;27639;48.674;9.242;2023-04-01T04:06:04;10.80;60.60
21502;DHT22;27639;48.674;9.242;2023-04-01T04:08:30;10.70;60.50
21502;DHT22;27639;48.674;9.242;2023-04-01T04:10:56;10.70;60.50
21502;DHT22;27639;48.674;9.242;2023-04-01T04:13:21;10.70;60.50
21502;DHT22;27639;48.674;9.242;2023-04-01T04:15:47;10.60;60.70
21502;DHT22;27639;48.674;9.242;2023-04-01T04:18:12;10.60;60.50
21502;DHT22;27639;48.674;9.242;2023-04-01T04:20:44;10.60;60.70
21502;DHT22;27639;48.674;9.242;2023-04-01T04:23:11;10.50;60.60
21502;DHT22;27639;48.674;9.242;2023-04-01T04:25:36;10.50;60.90
21502;DHT22;27639;48.674;9.242;2023-04-01T04:28:02;10.50;61.00
21502;DHT22;27639;48.674;9.242;2023-04-01T04:30:27;10.50;61.00
21502;DHT22;27639;48.674;9.242;2023-04-01T04:32:53;10.50;60.80
21502;DHT22;27639;48.674;9.242;2023-04-01T04:35:18;10.50;60.80
21502;DHT22;27639;48.674;9.242;2023-04-01T04:37:44;10.60;60.90
21502;DHT22;27639;48.674;9.242;2023-04-01T04:40:10;10.50;60.60
21502;DHT22;27639;48.674;9.242;2023-04-01T04:42:35;10.50;60.60
21502;DHT22;27639;48.674;9.242;2023-04-01T04:45:01;10.60;60.70
21502;DHT22;27639;48.674;9.242;2023-04-01T04:47:27;10.60;60.90
21502;DHT22;27639;48.674;9.242;2023-04-01T04:49:52;10.50;60.80
21502;DHT22;27639;48.674;9.242;2023-04-01T04:52:18;10.50;60.90
21502;DHT22;27639;48.674;9.242;2023-04-01T04:54:43;10.60;60.90
21502;DHT22;27639;48.674;9.242;2023-04-01T04:57:09;10.60;60.90
21502;DHT22;27639;48.674;9.242;2023-04-01T04:59:34;10.60;60.90
21502;DHT22;27639;48.674;9.242;2023-04-01T05:02:01;10.60;60.90
21502;DHT22;27639;48.674;9.242;2023-04-01T05:04:26;10.60;60.90
21502;DHT22;27639;48.674;9.242;2023-04-01T05:06:52;10.60;61.00
21502;DHT22;27639;48.674;9.242;2023-04-01T05:09:17;10.60;61.40
21502;DHT22;27639;48.674;9.242;2023-04-01T05:11:43;10.60;61.70
21502;DHT22;27639;48.674;9.242;2023-04-01T05:14:15;10.70;61.60
21502;DHT22;27639;48.674;9.242;2023-04-01T05:16:41;10.50;61.80
21502;DHT22;27639;48.674;9.242;2023-04-01T05:19:06;10.50;62.00
21502;DHT22;27639;48.674;9.242;2023-04-01T05:21:32;10.60;61.90
21502;DHT22;27639;48.674;9.242;2023-04-01T05:23:57;10.60;61.90
21502;DHT22;27639;48.674;9.242;2023-04-01T05:26:23;10.70;61.90
21502;DHT22;27639;48.674;9.242;2023-04-01T05:28:48;10.80;61.60
21502;DHT22;27639;48.674;9.242;2023-04-01T05:31:14;10.70;61.50
21502;DHT22;27639;48.674;9.242;2023-04-01T05:33:40;10.80;61.40
21502;DHT22;27639;48.674;9.242;2023-04-01T05:36:07;10.80;61.40
21502;DHT22;27639;48.674;9.242;2023-04-01T05:38:33;10.80;61.30
21502;DHT22;27639;48.674;9.242;2023-04-01T05:41:00;10.90;60.80
21502;DHT22;27639;48.674;9.242;2023-04-01T05:43:29;10.90;60.70
21502;DHT22;27639;48.674;9.242;2023-04-01T05:45:56;10.90;60.70
21502;DHT22;27639;48.674;9.242;2023-04-01T05:48:21;10.90;60.60
21502;DHT22;27639;48.674;9.242;2023-04-01T05:50:47;10.90;60.40
21502;DHT22;27639;48.674;9.242;2023-04-01T05:53:12;11.00;60.40
21502;DHT22;27639;48.674;9.242;2023-04-01T05:55:38;11.00;60.20
21502;DHT22;27639;48.674;9.242;2023-04-01T05:58:04;11.00;60.00
21502;DHT22;27639;48.674;9.242;2023-04-01T06:00:29;11.10;60.00
21502;DHT22;27639;48.674;9.242;2023-04-01T06:02:58;11.10;60.70
21502;DHT22;27639;48.674;9.242;2023-04-01T06:05:28;11.20;59.90
21502;DHT22;27639;48.674;9.242;2023-04-01T06:08:08;11.30;59.90
21502;DHT22;27639;48.674;9.242;2023-04-01T06:14:06;11.40;59.20
21502;DHT22;27639;48.674;9.242;2023-04-01T06:19:36;11.40;59.00
21502;DHT22;27639;48.674;9.242;2023-04-01T06:30:43;11.70;58.80
21502;DHT22;27639;48.674;9.242;2023-04-01T06:36:32;11.60;58.60
21502;DHT22;27639;48.674;9.242;2023-04-01T06:39:07;11.70;58.40
21502;DHT22;27639;48.674;9.242;2023-04-01T06:41:58;11.60;58.50
21502;DHT22;27639;48.674;9.242;2023-04-01T06:50:36;11.80;58.40
21502;DHT22;27639;48.674;9.242;2023-04-01T06:53:21;11.90;59.00
21502;DHT22;27639;48.674;9.242;2023-04-01T06:55:57;12.00;58.30
21502;DHT22;27639;48.674;9.242;2023-04-01T06:58:26;12.00;58.60
21502;DHT22;27639;48.674;9.242;2023-04-01T07:00:56;12.00;58.10
21502;DHT22;27639;48.674;9.242;2023-04-01T07:03:40;12.00;58.00
21502;DHT22;27639;48.674;9.242;2023-04-01T07:06:16;12.10;57.70
21502;DHT22;27639;48.674;9.242;2023-04-01T07:08:46;12.00;57.90
21502;DHT22;27639;48.674;9.242;2023-04-01T07:11:24;12.00;57.70
21502;DHT22;27639;48.674;9.242;2023-04-01T07:13:55;12.10;57.70
21502;DHT22;27639;48.674;9.242;2023-04-01T07:19:14;12.10;57.80
21502;DHT22;27639;48.674;9.242;2023-04-01T07:21:46;12.10;57.70
21502;DHT22;27639;48.674;9.242;2023-04-01T07:24:22;12.20;57.70
21502;DHT22;27639;48.674;9.242;2023-04-01T07:26:53;12.10;57.50
21502;DHT22;27639;48.674;9.242;2023-04-01T07:29:19;12.10;57.40
21502;DHT22;27639;48.674;9.242;2023-04-01T07:34:27;12.10;57.50
21502;DHT22;27639;48.674;9.242;2023-04-01T07:36:59;12.10;57.60
21502;DHT22;27639;48.674;9.242;2023-04-01T07:39:40;12.10;57.40
21502;DHT22;27639;48.674;9.242;2023-04-01T07:48:20;12.20;57.40
21502;DHT22;27639;48.674;9.242;2023-04-01T07:51:26;12.20;57.40
21502;DHT22;27639;48.674;9.242;2023-04-01T07:53:46;12.20;57.50
21502;DHT22;27639;48.674;9.242;2023-04-01T07:56:30;12.20;57.80
21502;DHT22;27639;48.674;9.242;2023-04-01T08:04:14;12.30;57.60
21502;DHT22;27639;48.674;9.242;2023-04-01T08:06:53;12.30;57.50
21502;DHT22;27639;48.674;9.242;2023-04-01T08:15:38;12.40;57.80
21502;DHT22;27639;48.674;9.242;2023-04-01T08:18:15;12.50;58.10
21502;DHT22;27639;48.674;9.242;2023-04-01T08:23:15;12.50;58.20
21502;DHT22;27639;48.674;9.242;2023-04-01T08:26:02;12.50;58.30
21502;DHT22;27639;48.674;9.242;2023-04-01T08:28:37;12.50;58.20
21502;DHT22;27639;48.674;9.242;2023-04-01T08:31:12;12.50;58.90
21502;DHT22;27639;48.674;9.242;2023-04-01T08:33:39;12.50;58.70
21502;DHT22;27639;48.674;9.242;2023-04-01T08:36:16;12.50;58.90
21502;DHT22;27639;48.674;9.242;2023-04-01T08:38:58;12.50;58.80
21502;DHT22;27639;48.674;9.242;2023-04-01T08:41:34;12.50;58.90
21502;DHT22;27639;48.674;9.242;2023-04-01T08:47:41;12.30;59.40
21502;DHT22;27639;48.674;9.242;2023-04-01T08:50:28;12.30;59.60
21502;DHT22;27639;48.674;9.242;2023-04-01T08:56:03;12.30;59.60
21502;DHT22;27639;48.674;9.242;2023-04-01T08:58:48;12.40;59.80
21502;DHT22;27639;48.674;9.242;2023-04-01T09:11:59;12.30;60.10
21502;DHT22;27639;48.674;9.242;2023-04-01T09:14:53;12.20;60.60
21502;DHT22;27639;48.674;9.242;2023-04-01T09:34:19;12.20;60.90
21502;DHT22;27639;48.674;9.242;2023-04-01T09:44:35;12.50;60.80
21502;DHT22;27639;48.674;9.242;2023-04-01T09:52:53;12.60;59.80
21502;DHT22;27639;48.674;9.242;2023-04-01T09:55:56;12.60;60.00
21502;DHT22;27639;48.674;9.242;2023-04-01T10:01:42;12.50;60.30
21502;DHT22;27639;48.674;9.242;2023-04-01T10:13:19;12.50;60.30
21502;DHT22;27639;48.674;9.242;2023-04-01T10:28:33;12.40;60.70
21502;DHT22;27639;48.674;9.242;2023-04-01T10:34:05;12.30;60.40
21502;DHT22;27639;48.674;9.242;2023-04-01T10:36:46;12.30;60.80
21502;DHT22;27639;48.674;9.242;2023-04-01T10:45:10;12.50;60.50
21502;DHT22;27639;48.674;9.242;2023-04-01T10:51:01;12.60;60.10
21502;DHT22;27639;48.674;9.242;2023-04-01T11:07:48;13.30;59.60
21502;DHT22;27639;48.674;9.242;2023-04-01T11:16:47;13.60;57.90
21502;DHT22;27639;48.674;9.242;2023-04-01T11:30:49;13.60;56.80
21502;DHT22;27639;48.674;9.242;2023-04-01T11:44:42;13.60;56.50
21502;DHT22;27639;48.674;9.242;2023-04-01T11:58:03;13.80;56.20
21502;DHT22;27639;48.674;9.242;2023-04-01T12:03:51;14.00;56.30
21502;DHT22;27639;48.674;9.242;2023-04-01T12:15:30;14.10;56.00
21502;DHT22;27639;48.674;9.242;2023-04-01T12:21:14;14.40;56.00
21502;DHT22;27639;48.674;9.242;2023-04-01T12:34:59;14.50;54.70
21502;DHT22;27639;48.674;9.242;2023-04-01T13:00:25;14.40;56.20
21502;DHT22;27639;48.674;9.242;2023-04-01T13:15:24;14.90;54.80
21502;DHT22;27639;48.674;9.242;2023-04-01T13:20:36;15.20;54.50
21502;DHT22;27639;48.674;9.242;2023-04-01T13:23:24;15.30;53.90
21502;DHT22;27639;48.674;9.242;2023-04-01T13:26:22;15.30;53.40
21502;DHT22;27639;48.674;9.242;2023-04-01T13:29:06;15.30;53.30
21502;DHT22;27639;48.674;9.242;2023-04-01T13:48:49;15.40;51.60
21502;DHT22;27639;48.674;9.242;2023-04-01T13:54:46;15.30;51.80
21502;DHT22;27639;48.674;9.242;2023-04-01T13:57:48;15.00;51.80
21502;DHT22;27639;48.674;9.242;2023-04-01T14:00:25;15.00;52.10
21502;DHT22;27639;48.674;9.242;2023-04-01T14:08:29;15.00;52.50
21502;DHT22;27639;48.674;9.242;2023-04-01T14:16:33;14.80;53.10
21502;DHT22;27639;48.674;9.242;2023-04-01T14:21:41;14.90;53.10
21502;DHT22;27639;48.674;9.242;2023-04-01T14:27:09;15.10;52.90
21502;DHT22;27639;48.674;9.242;2023-04-01T14:35:24;15.10;52.50
21502;DHT22;27639;48.674;9.242;2023-04-01T14:43:42;15.00;53.00
21502;DHT22;27639;48.674;9.242;2023-04-01T14:48:58;15.00;53.10
21502;DHT22;27639;48.674;9.242;2023-04-01T14:51:38;14.90;53.10
21502;DHT22;27639;48.674;9.242;2023-04-01T14:56:40;14.80;53.10
21502;DHT22;27639;48.674;9.242;2023-04-01T14:59:30;14.70;53.60
21502;DHT22;27639;48.674;9.242;2023-04-01T15:05:16;14.70;53.40
21502;DHT22;27639;48.674;9.242;2023-04-01T15:08:16;14.70;53.30
21502;DHT22;27639;48.674;9.242;2023-04-01T15:27:59;14.60;52.90
21502;DHT22;27639;48.674;9.242;2023-04-01T15:30:32;14.60;52.50
21502;DHT22;27639;48.674;9.242;2023-04-01T15:36:00;14.40;53.10
21502;DHT22;27639;48.674;9.242;2023-04-01T15:39:01;14.50;53.30
21502;DHT22;27639;48.674;9.242;2023-04-01T15:41:57;14.50;53.10
21502;DHT22;27639;48.674;9.242;2023-04-01T15:44:37;14.50;53.10
21502;DHT22;27639;48.674;9.242;2023-04-01T16:03:39;14.40;53.80
21502;DHT22;27639;48.674;9.242;2023-04-01T16:25:19;14.20;56.10
21502;DHT22;27639;48.674;9.242;2023-04-01T16:27:49;14.10;56.00
21502;DHT22;27639;48.674;9.242;2023-04-01T16:33:03;14.00;56.10
21502;DHT22;27639;48.674;9.242;2023-04-01T16:38:42;14.00;56.10
21502;DHT22;27639;48.674;9.242;2023-04-01T16:44:19;13.90;56.20
21502;DHT22;27639;48.674;9.242;2023-04-01T16:47:07;13.80;56.10
21502;DHT22;27639;48.674;9.242;2023-04-01T16:49:47;13.90;56.30
21502;DHT22;27639;48.674;9.242;2023-04-01T16:52:29;13.90;56.00
21502;DHT22;27639;48.674;9.242;2023-04-01T16:55:03;14.00;56.10
21502;DHT22;27639;48.674;9.242;2023-04-01T16:57:51;14.00;56.00
21502;DHT22;27639;48.674;9.242;2023-04-01T17:00:28;14.10;55.90
21502;DHT22;27639;48.674;9.242;2023-04-01T17:03:08;14.10;56.00
21502;DHT22;27639;48.674;9.242;2023-04-01T17:08:45;14.10;55.80
21502;DHT22;27639;48.674;9.242;2023-04-01T17:11:28;13.90;55.90
21502;DHT22;27639;48.674;9.242;2023-04-01T17:16:57;13.90;55.40
21502;DHT22;27639;48.674;9.242;2023-04-01T17:27:41;13.80;55.10
21502;DHT22;27639;48.674;9.242;2023-04-01T17:33:34;13.80;55.10
21502;DHT22;27639;48.674;9.242;2023-04-01T17:39:22;13.70;54.80
21502;DHT22;27639;48.674;9.242;2023-04-01T17:41:53;13.60;54.90
21502;DHT22;27639;48.674;9.242;2023-04-01T17:44:27;13.50;55.10
21502;DHT22;27639;48.674;9.242;2023-04-01T17:50:18;13.60;54.90
21502;DHT22;27639;48.674;9.242;2023-04-01T17:52:47;13.60;54.80
21502;DHT22;27639;48.674;9.242;2023-04-01T17:55:41;13.60;55.00
21502;DHT22;27639;48.674;9.242;2023-04-01T17:58:28;13.60;54.80
21502;DHT22;27639;48.674;9.242;2023-04-01T18:01:43;13.60;55.10
21502;DHT22;27639;48.674;9.242;2023-04-01T18:29:55;13.50;55.50
21502;DHT22;27639;48.674;9.242;2023-04-01T18:32:30;13.50;55.90
21502;DHT22;27639;48.674;9.242;2023-04-01T18:35:14;13.40;56.40
21502;DHT22;27639;48.674;9.242;2023-04-01T18:38:11;13.40;56.60
21502;DHT22;27639;48.674;9.242;2023-04-01T18:41:42;13.30;56.50
21502;DHT22;27639;48.674;9.242;2023-04-01T18:49:21;13.10;57.20
21502;DHT22;27639;48.674;9.242;2023-04-01T18:52:34;13.10;57.00
21502;DHT22;27639;48.674;9.242;2023-04-01T18:57:38;12.90;57.00
21502;DHT22;27639;48.674;9.242;2023-04-01T19:00:28;12.90;56.90
21502;DHT22;27639;48.674;9.242;2023-04-01T19:03:15;12.90;56.70
21502;DHT22;27639;48.674;9.242;2023-04-01T19:05:46;12.70;56.80
21502;DHT22;27639;48.674;9.242;2023-04-01T19:26:20;12.50;56.60
21502;DHT22;27639;48.674;9.242;2023-04-01T19:29:02;12.50;56.50
21502;DHT22;27639;48.674;9.242;2023-04-01T19:31:50;12.50;56.60
21502;DHT22;27639;48.674;9.242;2023-04-01T19:37:32;12.50;56.60
21502;DHT22;27639;48.674;9.242;2023-04-01T19:49:00;12.40;56.80
21502;DHT22;27639;48.674;9.242;2023-04-01T19:51:53;12.40;56.80
21502;DHT22;27639;48.674;9.242;2023-04-01T20:05:54;12.10;57.50
21502;DHT22;27639;48.674;9.242;2023-04-01T20:08:51;12.10;57.50
21502;DHT22;27639;48.674;9.242;2023-04-01T20:14:09;12.20;57.70
21502;DHT22;27639;48.674;9.242;2023-04-01T20:16:59;12.20;57.70
21502;DHT22;27639;48.674;9.242;2023-04-01T20:19:39;12.20;57.50
21502;DHT22;27639;48.674;9.242;2023-04-01T20:24:48;12.20;57.60
21502;DHT22;27639;48.674;9.242;2023-04-01T20:27:53;12.20;57.80
21502;DHT22;27639;48.674;9.242;2023-04-01T20:35:51;12.10;58.00
21502;DHT22;27639;48.674;9.242;2023-04-01T20:43:55;12.10;58.00
21502;DHT22;27639;48.674;9.242;2023-04-01T20:49:38;12.20;58.30
21502;DHT22;27639;48.674;9.242;2023-04-01T20:57:25;12.20;58.40
21502;DHT22;27639;48.674;9.242;2023-04-01T21:02:53;12.10;58.60
21502;DHT22;27639;48.674;9.242;2023-04-01T21:08:48;12.20;58.70
21502;DHT22;27639;48.674;9.242;2023-04-01T21:11:34;12.20;58.90
21502;DHT22;27639;48.674;9.242;2023-04-01T21:14:33;12.20;59.00
21502;DHT22;27639;48.674;9.242;2023-04-01T21:17:11;12.20;58.70
21502;DHT22;27639;48.674;9.242;2023-04-01T21:27:51;12.20;59.20
21502;DHT22;27639;48.674;9.242;2023-04-01T21:33:29;12.10;59.20
21502;DHT22;27639;48.674;9.242;2023-04-01T21:44:12;11.90;59.60
21502;DHT22;27639;48.674;9.242;2023-04-01T21:49:27;11.90;60.00
21502;DHT22;27639;48.674;9.242;2023-04-01T21:52:23;11.80;60.00
21502;DHT22;27639;48.674;9.242;2023-04-01T22:06:50;11.70;61.00
21502;DHT22;27639;48.674;9.242;2023-04-01T22:09:39;11.70;61.30
21502;DHT22;27639;48.674;9.242;2023-04-01T22:12:09;11.70;61.50
21502;DHT22;27639;48.674;9.242;2023-04-01T22:14:54;11.70;61.80
21502;DHT22;27639;48.674;9.242;2023-04-01T22:17:28;11.70;61.70
21502;DHT22;27639;48.674;9.242;2023-04-01T22:23:08;11.70;61.50
21502;DHT22;27639;48.674;9.242;2023-04-01T22:31:02;11.70;61.20
21502;DHT22;27639;48.674;9.242;2023-04-01T22:34:13;11.70;61.50
21502;DHT22;27639;48.674;9.242;2023-04-01T22:48:20;11.60;61.00
21502;DHT22;27639;48.674;9.242;2023-04-01T22:51:18;11.50;61.10
21502;DHT22;27639;48.674;9.242;2023-04-01T22:54:13;11.50;60.80
21502;DHT22;27639;48.674;9.242;2023-04-01T22:56:48;11.50;60.70
21502;DHT22;27639;48.674;9.242;2023-04-01T23:00:06;11.50;60.80
21502;DHT22;27639;48.674;9.242;2023-04-01T23:02:15;11.50;60.60
21502;DHT22;27639;48.674;9.242;2023-04-01T23:04:43;11.50;60.10
21502;DHT22;27639;48.674;9.242;2023-04-01T23:10:53;11.50;60.10
21502;DHT22;27639;48.674;9.242;2023-04-01T23:13:26;11.40;59.80
21502;DHT22;27639;48.674;9.242;2023-04-01T23:15:53;11.20;60.20
21502;DHT22;27639;48.674;9.242;2023-04-01T23:18:27;11.20;60.10
21502;DHT22;27639;48.674;9.242;2023-04-01T23:21:09;11.20;59.90
21502;DHT22;27639;48.674;9.242;2023-04-01T23:26:29;11.20;59.80
21502;DHT22;27639;48.674;9.242;2023-04-01T23:28:57;11.20;59.80
21502;DHT22;27639;48.674;9.242;2023-04-01T23:31:38;11.30;59.80
21502;DHT22;27639;48.674;9.242;2023-04-01T23:36:51;11.20;59.60
21502;DHT22;27639;48.674;9.242;2023-04-01T23:39:34;11.20;59.60
21502;DHT22;27639;48.674;9.242;2023-04-01T23:42:28;11.20;59.60
21502;DHT22;27639;48.674;9.242;2023-04-01T23:44:56;11.20;59.70
21502;DHT22;27639;48.674;9.242;2023-04-01T23:47:25;11.20;59.70
21502;DHT22;27639;48.674;9.242;2023-04-01T23:49:55;11.20;59.60
21502;DHT22;27639;48.674;9.242;2023-04-01T23:52:23;11.20;59.50
21502;DHT22;27639;48.674;9.242;2023-04-01T23:54:58;11.20;59.50
21502;DHT22;27639;48.674;9.242;2023-04-01T23:57:35;11.20;59.30
